createdAt,value
2022-10-11T08:05:21.335Z,101079.62
2022-10-11T08:07:56.257Z,101079.62
2022-10-11T08:10:30.631Z,101083.31
2022-10-11T08:13:04.944Z,101083.28
2022-10-11T08:15:39.150Z,101071.66
2022-10-11T08:18:13.519Z,101076.97
2022-10-11T08:20:49.031Z,101077.22
2022-10-11T08:23:23.652Z,101088.31
2022-10-11T08:25:59.214Z,101085.50
2022-10-11T08:28:34.095Z,101082.31
2022-10-11T08:31:11.497Z,101082.88
2022-10-11T08:33:45.957Z,101079.97
2022-10-11T08:36:21.505Z,101090.69
2022-10-11T08:38:55.872Z,101090.28
2022-10-11T08:41:40.319Z,101088.81
2022-10-11T08:45:05.368Z,101087.47
2022-10-11T08:47:37.687Z,101094.78
2022-10-11T08:50:19.832Z,101095.34
2022-10-11T08:52:59.270Z,101101.50
2022-10-11T08:55:40.963Z,101095.66
2022-10-11T09:57:20.637Z,101095.88
2022-10-11T10:00:02.237Z,101087.94
2022-10-11T10:06:19.194Z,101084.47
2022-10-11T10:08:53.495Z,101081.97
2022-10-11T10:15:20.348Z,101068.50
2022-10-11T10:17:54.804Z,101066.63
2022-10-11T10:20:32.658Z,101067.53
2022-10-11T10:23:13.516Z,101076.69
2022-10-11T10:33:13.175Z,101065.53
2022-10-11T10:35:52.436Z,101068.09
2022-10-11T10:38:30.466Z,101067.06
2022-10-11T10:41:10.508Z,101069.69
2022-10-11T10:43:51.744Z,101068.31
2022-10-11T10:46:39.178Z,101068.41
2022-10-11T10:49:51.880Z,101068.97
2022-10-11T10:56:17.078Z,101060.97
2022-10-11T10:59:30.001Z,101073.06
2022-10-11T11:02:39.721Z,101065.91
2022-10-11T11:06:12.255Z,101066.03
2022-10-11T11:09:00.862Z,101074.56
2022-10-11T11:11:51.530Z,101068.00
2022-10-11T11:14:38.482Z,101068.69
2022-10-11T11:20:25.973Z,101066.53
2022-10-11T11:23:09.753Z,101066.75
2022-10-11T11:25:50.813Z,101068.41
2022-10-11T11:29:02.754Z,101062.06
2022-10-11T11:31:50.672Z,101052.84
2022-10-11T11:34:29.853Z,101050.28
2022-10-11T11:37:07.791Z,101055.09
2022-10-11T11:39:48.955Z,101052.94
2022-10-11T11:45:56.633Z,101037.13
2022-10-11T11:51:22.148Z,101028.59
2022-10-11T11:54:08.373Z,101034.84
2022-10-11T11:56:55.688Z,101036.13
2022-10-11T11:59:37.616Z,101029.84
2022-10-11T12:02:40.268Z,101037.69
2022-10-11T12:05:24.021Z,101033.34
2022-10-11T12:08:01.528Z,101026.78
2022-10-11T12:13:59.932Z,101017.44
2022-10-11T12:16:34.369Z,101012.22
2022-10-11T12:29:45.724Z,101014.84
2022-10-11T12:45:56.221Z,100999.66
2022-10-11T12:48:58.329Z,100999.66
2022-10-11T12:51:39.992Z,101014.41
2022-10-11T12:54:37.258Z,101001.94
2022-10-11T12:57:46.312Z,101000.41
2022-10-11T13:00:28.051Z,101003.72
2022-10-11T13:03:07.316Z,101001.69
2022-10-11T13:05:48.705Z,100997.88
2022-10-11T13:08:29.767Z,101003.97
2022-10-11T13:11:07.286Z,100996.72
2022-10-11T13:13:55.791Z,100991.62
2022-10-11T13:16:43.077Z,100994.66
2022-10-11T13:19:53.252Z,100981.41
2022-10-11T13:22:32.257Z,100996.53
2022-10-11T13:25:09.202Z,100996.13
2022-10-11T13:27:44.565Z,101004.72
2022-10-11T13:30:21.288Z,101008.03
2022-10-11T13:33:07.652Z,101003.69
2022-10-11T13:35:42.933Z,100999.37
2022-10-11T13:38:23.476Z,101002.94
2022-10-11T13:40:58.264Z,100991.28
2022-10-11T13:43:33.304Z,101002.69
2022-10-11T13:46:13.219Z,100999.13
2022-10-11T13:48:47.616Z,100997.59
2022-10-11T13:55:09.060Z,101000.56
2022-10-11T13:57:47.236Z,100996.25
2022-10-11T14:00:35.071Z,100999.97
2022-10-11T14:03:20.237Z,100999.25
2022-10-11T14:05:56.530Z,100996.25
2022-10-11T14:08:51.974Z,100997.44
2022-10-11T14:11:47.938Z,101005.09
2022-10-11T14:14:42.796Z,101004.38
2022-10-11T14:17:18.490Z,101004.38
2022-10-11T14:20:11.519Z,100995.75
2022-10-11T14:22:46.354Z,101000.47
2022-10-11T14:25:34.835Z,100991.03
2022-10-11T14:28:14.105Z,101002.41
2022-10-11T14:30:50.342Z,100999.37
2022-10-11T14:33:24.597Z,101007.44
2022-10-11T14:35:59.933Z,101004.66
2022-10-11T14:38:34.007Z,101002.56
2022-10-11T14:41:08.467Z,101006.84
2022-10-11T14:43:42.617Z,101000.94
2022-10-11T14:46:24.228Z,101005.44
2022-10-11T14:48:58.308Z,101009.19
2022-10-11T15:07:49.363Z,101019.28
2022-10-11T15:10:27.229Z,101023.31
2022-10-11T15:19:37.135Z,101019.72
2022-10-11T15:29:01.120Z,101019.66
2022-10-11T15:41:40.080Z,101018.72
2022-10-11T15:47:53.171Z,101031.06
2022-10-11T15:50:37.491Z,101034.25
2022-10-11T15:53:21.240Z,101032.47
2022-10-11T15:55:57.186Z,101036.34
2022-10-11T15:58:33.088Z,101030.50
2022-10-11T16:01:09.990Z,101032.72
2022-10-11T16:03:46.775Z,101037.72
2022-10-11T16:06:20.964Z,101042.88
2022-10-11T16:08:55.359Z,101041.91
2022-10-11T16:11:29.425Z,101046.38
2022-10-11T16:14:03.779Z,101049.41
2022-10-11T16:16:38.048Z,101053.59
2022-10-11T16:19:13.792Z,101054.13
2022-10-11T16:21:47.893Z,101058.59
2022-10-11T16:24:22.272Z,101061.09
2022-10-11T16:26:56.345Z,101067.84
2022-10-11T16:33:09.640Z,101072.50
2022-10-11T16:39:13.304Z,101076.03
2022-10-11T16:41:48.230Z,101076.53
2022-10-11T16:51:07.440Z,101078.53
2022-10-11T16:53:56.784Z,101089.16
2022-10-11T16:56:37.342Z,101090.25
2022-10-11T16:59:14.457Z,101090.69
2022-10-11T17:01:49.042Z,101100.59
2022-10-11T17:04:23.913Z,101103.78
2022-10-11T17:10:16.078Z,101091.63
2022-10-11T17:12:51.984Z,101113.94
2022-10-11T17:15:26.258Z,101112.81
2022-10-11T17:21:20.711Z,101114.72
2022-10-11T17:23:55.446Z,101116.94
2022-10-11T17:29:49.541Z,101124.50
2022-10-11T17:35:46.105Z,101130.59
2022-10-11T17:38:35.690Z,101125.84
2022-10-11T17:45:24.929Z,101132.06
2022-10-11T17:48:04.080Z,101133.31
2022-10-11T18:04:13.508Z,101125.56
2022-10-11T18:10:06.593Z,101141.69
2022-10-11T18:12:41.137Z,101136.81
2022-10-11T18:15:15.317Z,101135.09
2022-10-11T18:17:50.167Z,101137.22
2022-10-11T18:20:26.161Z,101137.81
2022-10-11T18:23:00.646Z,101143.94
2022-10-11T18:25:35.076Z,101140.31
2022-10-11T18:28:09.679Z,101135.97
2022-10-11T18:44:46.203Z,101132.41
2022-10-11T18:47:20.780Z,101143.53
2022-10-11T18:49:54.985Z,101146.03
2022-10-11T18:52:29.313Z,101142.09
2022-10-11T18:58:22.068Z,101141.25
2022-10-11T19:01:04.565Z,101142.97
2022-10-11T19:13:45.871Z,101143.66
2022-10-11T19:16:22.326Z,101145.63
2022-10-11T19:18:57.024Z,101153.06
2022-10-11T19:24:29.107Z,101150.03
2022-10-11T19:27:03.516Z,101161.78
2022-10-11T19:29:37.908Z,101144.31
2022-10-11T19:32:13.627Z,101159.44
2022-10-11T19:34:47.673Z,101154.69
2022-10-11T19:37:22.172Z,101160.41
2022-10-11T19:39:59.379Z,101155.59
2022-10-11T19:42:34.199Z,101160.56
2022-10-11T19:45:09.667Z,101160.25
2022-10-11T19:47:45.503Z,101162.44
2022-10-11T19:50:19.926Z,101167.41
2022-10-11T19:52:57.009Z,101159.66
2022-10-11T19:55:35.381Z,101160.72
2022-10-11T19:58:10.045Z,101157.72
2022-10-11T20:00:44.287Z,101165.50
2022-10-11T20:03:20.220Z,101165.63
2022-10-11T20:05:54.432Z,101167.59
2022-10-11T20:08:31.364Z,101163.59
2022-10-11T20:11:07.378Z,101168.13
2022-10-11T20:13:41.727Z,101163.84
2022-10-11T20:16:17.878Z,101166.63
2022-10-11T20:18:54.763Z,101171.84
2022-10-11T20:21:31.448Z,101172.87
2022-10-11T20:24:12.136Z,101176.63
2022-10-11T20:26:45.997Z,101172.72
2022-10-11T20:29:20.316Z,101175.34
2022-10-11T20:31:56.300Z,101168.31
2022-10-11T20:34:32.151Z,101179.31
2022-10-11T20:37:06.233Z,101169.94
2022-10-11T20:39:40.637Z,101166.50
2022-10-11T20:42:14.679Z,101160.91
2022-10-11T20:44:49.504Z,101169.56
2022-10-11T20:47:23.693Z,101172.81
2022-10-11T20:49:59.769Z,101172.63
2022-10-11T20:52:33.974Z,101184.31
2022-10-11T20:55:09.459Z,101178.81
2022-10-11T20:57:43.519Z,101169.88
2022-10-11T21:00:18.132Z,101173.72
2022-10-11T21:02:52.209Z,101184.47
2022-10-11T21:05:27.933Z,101175.09
2022-10-11T21:08:02.242Z,101179.53
2022-10-11T21:10:36.599Z,101179.22
2022-10-11T21:13:10.585Z,101188.94
